createdAt,value
2023-05-07T00:00:46.692Z,62.10
2023-05-07T00:03:16.720Z,62.16
2023-05-07T00:05:46.967Z,62.30
2023-05-07T00:08:14.811Z,62.36
2023-05-07T00:10:42.701Z,62.22
2023-05-07T00:13:10.863Z,62.10
2023-05-07T00:15:38.561Z,62.19
2023-05-07T00:18:06.307Z,62.33
2023-05-07T00:20:36.024Z,62.24
2023-05-07T00:23:03.792Z,62.24
2023-05-07T00:25:31.422Z,62.49
2023-05-07T00:28:00.864Z,62.66
2023-05-07T00:30:28.776Z,62.81
2023-05-07T00:32:56.623Z,63.24
2023-05-07T00:35:24.391Z,63.13
2023-05-07T00:37:52.147Z,63.21
2023-05-07T00:40:20.257Z,63.27
2023-05-07T00:42:49.423Z,63.39
2023-05-07T00:45:17.657Z,63.56
2023-05-07T00:47:45.285Z,63.57
2023-05-07T00:50:14.163Z,63.55
2023-05-07T00:52:42.826Z,63.52
2023-05-07T00:55:11.031Z,63.63
2023-05-07T00:57:41.472Z,63.79
2023-05-07T01:00:10.599Z,63.68
2023-05-07T01:02:39.969Z,63.74
2023-05-07T01:05:12.021Z,63.82
2023-05-07T01:07:41.667Z,63.74
2023-05-07T01:10:11.039Z,63.76
2023-05-07T01:12:41.265Z,63.89
2023-05-07T01:15:10.617Z,64.03
2023-05-07T01:17:41.699Z,63.97
2023-05-07T01:20:12.400Z,64.03
2023-05-07T01:22:41.218Z,64.25
2023-05-07T01:25:09.724Z,64.37
2023-05-07T01:27:38.876Z,64.52
2023-05-07T01:30:08.103Z,64.94
2023-05-07T01:32:46.749Z,65.00
2023-05-07T01:35:25.618Z,65.12
2023-05-07T01:37:54.181Z,65.41
2023-05-07T01:40:22.398Z,65.35
2023-05-07T01:42:49.843Z,65.41
2023-05-07T01:45:17.818Z,65.62
2023-05-07T01:47:45.705Z,65.64
2023-05-07T01:50:15.272Z,65.62
2023-05-07T01:52:43.065Z,65.80
2023-05-07T01:55:10.757Z,66.00
2023-05-07T01:57:38.361Z,65.92
2023-05-07T02:00:09.352Z,66.03
2023-05-07T02:02:43.326Z,65.98
2023-05-07T02:05:12.764Z,66.17
2023-05-07T02:07:41.718Z,66.25
2023-05-07T02:10:10.733Z,66.51
2023-05-07T02:12:38.636Z,66.41
2023-05-07T02:15:07.358Z,66.63
2023-05-07T02:17:37.237Z,67.18
2023-05-07T02:20:07.768Z,67.29
2023-05-07T02:22:35.254Z,67.48
2023-05-07T02:25:03.119Z,67.63
2023-05-07T02:27:31.036Z,67.88
2023-05-07T02:29:58.614Z,67.72
2023-05-07T02:32:26.326Z,68.01
2023-05-07T02:34:54.271Z,67.97
2023-05-07T02:37:22.096Z,68.07
2023-05-07T02:39:49.810Z,68.11
2023-05-07T02:42:18.059Z,68.24
2023-05-07T02:44:45.636Z,68.31
2023-05-07T02:47:15.726Z,68.39
2023-05-07T02:49:43.993Z,68.50
2023-05-07T02:52:11.616Z,68.45
2023-05-07T02:54:39.186Z,68.33
2023-05-07T02:57:06.710Z,68.25
2023-05-07T02:59:34.393Z,68.05
2023-05-07T03:02:02.322Z,67.92
2023-05-07T03:04:31.146Z,67.84
2023-05-07T03:06:59.094Z,67.82
2023-05-07T03:09:26.759Z,67.84
2023-05-07T03:11:54.188Z,67.86
2023-05-07T03:14:21.637Z,67.93
2023-05-07T03:16:50.698Z,67.96
2023-05-07T03:19:18.397Z,68.03
2023-05-07T03:21:46.173Z,68.12
2023-05-07T03:24:13.721Z,68.17
2023-05-07T03:26:41.268Z,68.22
2023-05-07T03:29:08.703Z,68.26
2023-05-07T03:31:36.323Z,68.25
2023-05-07T03:34:04.787Z,68.38
2023-05-07T03:36:32.602Z,68.39
2023-05-07T03:39:00.607Z,68.38
2023-05-07T03:41:30.228Z,68.37
2023-05-07T03:43:58.192Z,68.40
2023-05-07T03:46:26.902Z,68.48
2023-05-07T03:48:54.813Z,68.50
2023-05-07T03:51:22.587Z,68.42
2023-05-07T03:53:50.224Z,68.35
2023-05-07T03:56:21.466Z,68.41
2023-05-07T03:58:50.977Z,68.37
2023-05-07T04:01:18.604Z,68.29
2023-05-07T04:03:46.755Z,68.33
2023-05-07T04:06:16.172Z,68.26
2023-05-07T04:08:45.045Z,68.26
2023-05-07T04:11:13.135Z,68.11
2023-05-07T04:13:40.712Z,68.18
2023-05-07T04:16:09.517Z,68.29
2023-05-07T04:18:37.904Z,68.30
2023-05-07T04:21:06.430Z,68.25
2023-05-07T04:23:34.707Z,68.47
2023-05-07T04:26:03.621Z,68.53
2023-05-07T04:28:33.092Z,68.53
2023-05-07T04:31:00.823Z,68.61
2023-05-07T04:33:28.852Z,68.68
2023-05-07T04:35:57.290Z,68.63
2023-05-07T04:38:24.823Z,68.53
2023-05-07T04:40:53.378Z,68.45
2023-05-07T04:43:22.464Z,68.26
2023-05-07T04:45:52.882Z,68.15
2023-05-07T04:48:21.037Z,68.02
2023-05-07T04:50:50.665Z,68.05
2023-05-07T04:53:19.231Z,68.10
2023-05-07T04:55:47.071Z,68.05
2023-05-07T04:58:14.754Z,68.19
2023-05-07T05:00:42.983Z,68.39
2023-05-07T05:03:11.782Z,68.73
2023-05-07T05:05:40.255Z,68.65
2023-05-07T05:08:08.677Z,68.54
2023-05-07T05:10:38.305Z,68.39
2023-05-07T05:13:06.891Z,68.08
2023-05-07T05:15:34.744Z,67.76
2023-05-07T05:18:04.155Z,67.58
2023-05-07T05:20:35.951Z,67.36
2023-05-07T05:23:12.253Z,67.20
2023-05-07T05:25:42.176Z,67.14
2023-05-07T05:28:11.218Z,67.01
2023-05-07T05:30:40.213Z,66.97
2023-05-07T05:33:08.867Z,66.92
2023-05-07T05:35:36.983Z,66.96
2023-05-07T05:38:06.034Z,67.00
2023-05-07T05:40:35.665Z,67.12
2023-05-07T05:43:03.409Z,67.19
2023-05-07T05:45:32.034Z,67.19
2023-05-07T05:48:00.564Z,67.24
2023-05-07T05:50:28.294Z,67.38
2023-05-07T05:52:56.929Z,67.38
2023-05-07T05:55:26.025Z,67.40
2023-05-07T05:57:53.693Z,67.46
2023-05-07T06:00:24.909Z,67.42
2023-05-07T06:02:54.341Z,67.42
2023-05-07T06:05:23.917Z,67.40
2023-05-07T06:07:53.154Z,67.55
2023-05-07T06:10:20.789Z,67.44
2023-05-07T06:12:49.551Z,67.44
2023-05-07T06:15:21.278Z,67.43
2023-05-07T06:17:49.705Z,67.28
2023-05-07T06:20:18.334Z,67.14
2023-05-07T06:22:48.385Z,66.99
2023-05-07T06:26:04.314Z,66.82
2023-05-07T06:28:36.431Z,66.54
2023-05-07T06:31:16.236Z,66.38
2023-05-07T06:33:45.929Z,66.05
2023-05-07T06:36:14.631Z,65.87
2023-05-07T06:38:42.680Z,65.84
2023-05-07T06:41:10.462Z,65.57
2023-05-07T06:43:39.886Z,65.28
2023-05-07T06:46:15.494Z,65.20
2023-05-07T06:48:43.355Z,65.02
2023-05-07T06:51:11.795Z,65.13
2023-05-07T06:53:42.036Z,65.32
2023-05-07T06:56:11.925Z,65.38
2023-05-07T06:58:41.935Z,65.66
2023-05-07T07:01:10.682Z,65.95
2023-05-07T07:03:38.752Z,66.06
2023-05-07T07:06:06.501Z,66.15
2023-05-07T07:08:35.074Z,66.23
2023-05-07T07:11:03.370Z,66.37
2023-05-07T07:13:31.425Z,66.31
2023-05-07T07:15:59.427Z,66.30
2023-05-07T07:18:27.314Z,66.31
2023-05-07T07:20:55.400Z,66.06
2023-05-07T07:23:23.061Z,65.77
2023-05-07T07:25:51.271Z,65.44
2023-05-07T07:28:35.944Z,65.12
2023-05-07T07:31:30.338Z,64.92
2023-05-07T07:34:03.110Z,64.47
2023-05-07T07:36:57.726Z,64.24
2023-05-07T07:39:28.140Z,63.58
2023-05-07T07:41:56.168Z,63.33
2023-05-07T07:44:23.963Z,63.00
2023-05-07T07:46:53.465Z,62.74
2023-05-07T07:49:23.916Z,62.13
2023-05-07T07:51:51.645Z,62.20
2023-05-07T07:54:19.368Z,61.90
2023-05-07T07:56:47.391Z,61.41
2023-05-07T07:59:19.203Z,60.15
2023-05-07T08:01:48.832Z,59.52
2023-05-07T08:04:16.880Z,58.64
2023-05-07T08:06:45.133Z,58.79
2023-05-07T08:09:13.550Z,55.50
2023-05-07T08:11:42.107Z,55.82
2023-05-07T08:14:10.253Z,56.15
2023-05-07T08:16:37.989Z,56.22
2023-05-07T08:19:05.848Z,56.08
2023-05-07T08:21:34.707Z,55.84
2023-05-07T08:24:02.711Z,55.48
2023-05-07T08:26:30.661Z,55.07
2023-05-07T08:28:58.318Z,54.84
2023-05-07T08:31:26.420Z,55.11
2023-05-07T08:33:56.623Z,55.06
2023-05-07T08:36:24.746Z,55.22
2023-05-07T08:38:53.412Z,55.81
2023-05-07T08:41:22.224Z,56.86
2023-05-07T08:43:51.217Z,57.67
2023-05-07T08:46:22.092Z,58.42
2023-05-07T08:48:51.717Z,58.61
2023-05-07T08:51:21.871Z,58.46
2023-05-07T08:53:51.122Z,58.74
2023-05-07T08:56:22.247Z,59.11
2023-05-07T08:58:58.767Z,59.12
2023-05-07T09:01:32.445Z,59.12
2023-05-07T09:04:00.332Z,59.57
2023-05-07T09:06:28.474Z,59.58
2023-05-07T09:08:58.832Z,59.52
2023-05-07T09:11:28.950Z,59.66
2023-05-07T09:14:09.533Z,59.74
2023-05-07T09:16:39.650Z,59.69
2023-05-07T09:19:08.746Z,59.86
2023-05-07T09:21:42.547Z,60.03
2023-05-07T09:24:12.600Z,60.46
2023-05-07T09:26:41.934Z,61.15
2023-05-07T09:29:11.441Z,62.16
2023-05-07T09:31:39.239Z,62.87
2023-05-07T09:34:08.453Z,63.41
2023-05-07T09:36:36.922Z,64.03
2023-05-07T09:39:04.654Z,64.24
2023-05-07T09:41:33.050Z,64.57
2023-05-07T09:44:02.876Z,64.70
2023-05-07T09:46:35.146Z,64.62
2023-05-07T09:49:11.191Z,65.23
2023-05-07T09:51:54.131Z,66.04
2023-05-07T09:54:32.152Z,66.27
2023-05-07T09:57:03.573Z,66.93
2023-05-07T09:59:33.581Z,67.14
2023-05-07T10:02:05.392Z,67.68
2023-05-07T10:04:35.376Z,67.86
2023-05-07T10:07:05.536Z,68.04
2023-05-07T10:09:35.699Z,68.09
2023-05-07T10:12:05.964Z,67.97
2023-05-07T10:14:35.038Z,68.05
2023-05-07T10:17:03.476Z,68.65
2023-05-07T10:19:33.725Z,68.97
2023-05-07T10:22:06.720Z,69.32
2023-05-07T10:24:38.010Z,69.32
2023-05-07T10:27:12.069Z,69.42
2023-05-07T10:30:04.485Z,69.93
2023-05-07T10:32:43.932Z,70.15
2023-05-07T10:35:18.879Z,70.29
2023-05-07T10:37:48.963Z,70.40
2023-05-07T10:40:20.462Z,70.50
2023-05-07T10:43:11.029Z,70.79
2023-05-07T10:45:43.811Z,71.47
2023-05-07T10:48:29.688Z,71.57
2023-05-07T10:50:48.934Z,71.88
2023-05-07T10:53:24.247Z,72.26
2023-05-07T10:56:22.111Z,72.46
2023-05-07T10:58:54.312Z,72.41
2023-05-07T11:01:51.499Z,72.47
2023-05-07T11:04:21.912Z,72.18
2023-05-07T11:07:15.056Z,72.01
2023-05-07T11:10:01.116Z,71.99
2023-05-07T11:12:52.983Z,71.92
2023-05-07T11:15:38.597Z,71.66
2023-05-07T11:18:08.003Z,71.55
2023-05-07T11:20:53.066Z,71.03
2023-05-07T11:23:41.021Z,70.97
2023-05-07T11:26:13.583Z,71.26
2023-05-07T11:28:43.808Z,71.15
2023-05-07T11:31:12.474Z,71.74
2023-05-07T11:33:41.819Z,71.82
2023-05-07T11:36:11.656Z,71.93
2023-05-07T11:38:41.501Z,71.74
2023-05-07T11:41:09.284Z,72.19
2023-05-07T11:43:37.921Z,71.93
2023-05-07T11:46:14.863Z,72.22
2023-05-07T11:48:42.483Z,72.02
2023-05-07T11:51:12.073Z,71.77
2023-05-07T11:53:43.806Z,71.45
2023-05-07T11:56:14.252Z,71.70
2023-05-07T11:58:43.608Z,72.14
2023-05-07T12:01:13.527Z,72.28
2023-05-07T12:03:44.464Z,72.81
2023-05-07T12:06:14.481Z,72.29
2023-05-07T12:08:45.773Z,71.87
2023-05-07T12:11:26.306Z,71.70
2023-05-07T12:13:59.100Z,71.66
2023-05-07T12:16:26.049Z,71.56
2023-05-07T12:18:55.535Z,71.53
2023-05-07T12:21:24.920Z,71.34
2023-05-07T12:23:53.270Z,69.53
2023-05-07T12:26:21.967Z,68.88
2023-05-07T12:28:50.390Z,69.27
2023-05-07T12:31:18.181Z,69.85
2023-05-07T12:33:46.407Z,69.59
2023-05-07T12:36:14.455Z,68.13
2023-05-07T12:38:42.486Z,68.28
2023-05-07T12:41:13.011Z,68.19
2023-05-07T12:43:40.970Z,68.18
2023-05-07T12:46:09.299Z,67.71
2023-05-07T12:48:39.060Z,67.48
2023-05-07T12:51:08.118Z,66.95
2023-05-07T12:53:44.027Z,66.42
2023-05-07T12:56:11.828Z,66.50
2023-05-07T12:58:39.374Z,66.40
2023-05-07T13:01:10.060Z,66.24
2023-05-07T13:03:39.285Z,66.82
2023-05-07T13:06:10.124Z,66.25
2023-05-07T13:08:41.641Z,67.28
2023-05-07T13:11:10.575Z,67.37
2023-05-07T13:13:40.646Z,66.82
2023-05-07T13:16:11.343Z,67.19
2023-05-07T13:18:40.963Z,67.52
2023-05-07T13:21:08.928Z,67.70
2023-05-07T13:23:38.593Z,67.25
2023-05-07T13:26:22.563Z,66.15
2023-05-07T13:28:37.447Z,66.25
2023-05-07T13:31:05.125Z,65.77
2023-05-07T13:33:32.733Z,65.22
2023-05-07T13:36:01.321Z,65.19
2023-05-07T13:38:29.524Z,64.98
2023-05-07T13:40:57.240Z,64.63
2023-05-07T13:43:26.033Z,64.27
2023-05-07T13:45:53.676Z,63.54
2023-05-07T13:48:21.249Z,63.93
2023-05-07T13:50:48.825Z,62.32
2023-05-07T13:53:18.500Z,61.66
2023-05-07T13:55:46.470Z,61.64
2023-05-07T13:58:25.319Z,61.62
2023-05-07T14:00:53.262Z,62.00
2023-05-07T14:03:21.110Z,61.74
2023-05-07T14:05:50.379Z,62.21
2023-05-07T14:08:20.277Z,62.29
2023-05-07T14:10:48.219Z,61.11
2023-05-07T14:13:16.247Z,61.40
2023-05-07T14:15:45.812Z,61.02
2023-05-07T14:18:13.923Z,60.29
2023-05-07T14:20:43.733Z,60.90
2023-05-07T14:23:11.242Z,61.26
2023-05-07T14:25:38.879Z,61.18
2023-05-07T14:28:08.815Z,60.58
2023-05-07T14:30:36.368Z,60.38
2023-05-07T14:33:04.761Z,60.79
2023-05-07T14:35:32.700Z,60.22
2023-05-07T14:38:03.847Z,60.52
2023-05-07T14:40:32.397Z,60.71
2023-05-07T14:43:00.760Z,60.88
2023-05-07T14:45:28.278Z,60.53
2023-05-07T14:47:55.980Z,60.49
2023-05-07T14:50:23.721Z,60.77
2023-05-07T14:52:51.394Z,61.01
2023-05-07T14:55:18.877Z,61.14
2023-05-07T14:57:46.478Z,61.04
2023-05-07T15:00:14.735Z,61.21
2023-05-07T15:02:42.455Z,61.21
2023-05-07T15:05:10.306Z,61.10
2023-05-07T15:07:38.222Z,60.88
2023-05-07T15:10:06.813Z,60.67
2023-05-07T15:12:34.338Z,60.44
2023-05-07T15:15:02.475Z,60.70
2023-05-07T15:17:33.089Z,60.66
2023-05-07T15:20:00.670Z,60.79
2023-05-07T15:22:28.299Z,60.94
2023-05-07T15:24:57.174Z,61.18
2023-05-07T15:27:24.955Z,61.23
2023-05-07T15:29:52.713Z,61.37
2023-05-07T15:32:20.883Z,61.55
2023-05-07T15:34:48.647Z,61.71
2023-05-07T15:37:16.242Z,61.81
2023-05-07T15:39:46.564Z,62.36
2023-05-07T15:42:16.968Z,62.69
2023-05-07T15:44:44.353Z,62.99
2023-05-07T15:47:14.214Z,63.29
2023-05-07T15:49:42.765Z,63.49
2023-05-07T15:52:17.104Z,63.59
2023-05-07T15:54:44.803Z,63.71
2023-05-07T15:57:12.484Z,63.87
2023-05-07T15:59:39.990Z,63.99
2023-05-07T16:02:07.877Z,64.02
2023-05-07T16:04:35.458Z,64.11
2023-05-07T16:07:03.535Z,64.17
2023-05-07T16:09:31.436Z,64.27
2023-05-07T16:12:00.550Z,64.39
2023-05-07T16:14:28.034Z,64.46
2023-05-07T16:16:58.985Z,64.62
2023-05-07T16:19:26.778Z,64.68
2023-05-07T16:21:54.680Z,64.72
2023-05-07T16:24:24.433Z,64.79
2023-05-07T16:26:55.354Z,64.93
2023-05-07T16:29:23.308Z,65.09
2023-05-07T16:31:52.729Z,65.15
2023-05-07T16:34:21.339Z,65.23
2023-05-07T16:36:49.206Z,65.33
2023-05-07T16:39:17.123Z,65.43
2023-05-07T16:41:47.631Z,65.60
2023-05-07T16:44:15.746Z,66.01
2023-05-07T16:46:43.418Z,66.03
2023-05-07T16:49:11.947Z,66.17
2023-05-07T16:51:41.737Z,66.44
2023-05-07T16:54:09.467Z,66.60
2023-05-07T16:56:43.524Z,66.86
2023-05-07T16:59:13.347Z,67.20
2023-05-07T17:01:42.253Z,67.37
2023-05-07T17:04:10.204Z,67.51
2023-05-07T17:06:37.693Z,67.65
2023-05-07T17:09:05.304Z,67.82
2023-05-07T17:11:34.662Z,68.21
2023-05-07T17:14:04.815Z,68.52
2023-05-07T17:16:31.903Z,68.77
2023-05-07T17:18:59.587Z,69.16
2023-05-07T17:21:28.931Z,69.54
2023-05-07T17:23:56.656Z,69.87
2023-05-07T17:26:24.390Z,70.94
2023-05-07T17:28:52.193Z,71.54
2023-05-07T17:31:19.660Z,72.25
2023-05-07T17:33:47.093Z,72.52
2023-05-07T17:36:15.075Z,72.91
2023-05-07T17:38:42.363Z,73.45
2023-05-07T17:41:10.177Z,74.22
2023-05-07T17:43:37.827Z,74.93
2023-05-07T17:46:05.542Z,76.20
2023-05-07T17:48:33.168Z,76.73
2023-05-07T17:51:02.686Z,77.77
2023-05-07T17:53:30.690Z,78.17
2023-05-07T17:55:58.616Z,79.07
2023-05-07T17:58:26.872Z,78.84
2023-05-07T18:00:55.100Z,79.05
2023-05-07T18:06:27.664Z,79.13
2023-05-07T18:09:20.365Z,79.68
2023-05-07T18:24:37.900Z,80.57
2023-05-07T18:27:06.240Z,79.79
2023-05-07T18:29:34.122Z,79.80
2023-05-07T18:32:03.518Z,79.60
2023-05-07T18:34:31.436Z,79.68
2023-05-07T18:37:01.295Z,79.59
2023-05-07T18:39:29.058Z,79.60
2023-05-07T18:41:57.838Z,79.92
2023-05-07T18:44:27.301Z,79.91
2023-05-07T18:46:55.801Z,79.89
2023-05-07T18:49:23.856Z,79.98
2023-05-07T18:52:12.385Z,80.11
2023-05-07T18:57:58.703Z,80.34
2023-05-07T19:00:43.866Z,80.44
2023-05-07T19:03:17.565Z,80.51
2023-05-07T19:05:52.480Z,80.56
2023-05-07T19:08:19.966Z,80.77
2023-05-07T19:10:47.720Z,80.77
2023-05-07T19:13:18.511Z,80.95
2023-05-07T19:15:47.740Z,81.06
2023-05-07T19:18:15.401Z,81.13
2023-05-07T19:20:43.012Z,81.21
2023-05-07T19:23:11.666Z,81.70
2023-05-07T19:25:39.593Z,81.71
2023-05-07T19:28:07.339Z,82.33
2023-05-07T19:30:40.397Z,82.55
2023-05-07T19:33:09.219Z,83.03
2023-05-07T19:35:37.581Z,83.49
2023-05-07T19:38:05.752Z,84.55
2023-05-07T19:40:34.124Z,85.08
2023-05-07T19:43:02.902Z,85.42
2023-05-07T19:45:32.664Z,85.79
2023-05-07T19:48:00.357Z,85.83
2023-05-07T19:50:28.140Z,85.77
2023-05-07T19:52:55.960Z,85.72
2023-05-07T19:55:23.946Z,85.81
2023-05-07T19:57:51.742Z,85.70
2023-05-07T20:00:41.517Z,85.69
2023-05-07T20:03:13.483Z,85.73
2023-05-07T20:05:41.570Z,85.76
2023-05-07T20:08:10.726Z,85.85
2023-05-07T20:10:39.540Z,86.08
2023-05-07T20:13:07.811Z,86.34
2023-05-07T20:15:38.980Z,86.64
2023-05-07T20:18:13.228Z,86.85
2023-05-07T20:20:41.159Z,86.73
2023-05-07T20:23:11.067Z,86.64
2023-05-07T20:25:45.588Z,87.50
2023-05-07T20:28:14.181Z,86.70
2023-05-07T20:30:42.216Z,86.81
2023-05-07T20:33:11.112Z,86.47
2023-05-07T20:35:39.113Z,86.32
2023-05-07T20:38:11.199Z,86.34
2023-05-07T20:40:40.166Z,86.28
2023-05-07T20:43:07.983Z,86.25
2023-05-07T20:45:35.973Z,86.24
2023-05-07T20:48:04.363Z,86.28
2023-05-07T20:50:33.274Z,86.34
2023-05-07T20:53:01.451Z,86.32
2023-05-07T20:55:30.179Z,86.32
2023-05-07T20:58:01.734Z,86.32
2023-05-07T21:00:39.004Z,86.26
2023-05-07T21:03:08.406Z,86.42
2023-05-07T21:05:36.447Z,86.60
2023-05-07T21:08:05.376Z,86.43
2023-05-07T21:10:35.098Z,86.48
2023-05-07T21:13:05.680Z,86.38
2023-05-07T21:15:43.999Z,86.39
2023-05-07T21:18:11.834Z,86.41
2023-05-07T21:20:40.107Z,86.34
2023-05-07T21:23:09.606Z,86.37
2023-05-07T21:25:40.809Z,86.41
2023-05-07T21:28:09.825Z,86.28
2023-05-07T21:30:39.966Z,86.32
2023-05-07T21:33:12.453Z,86.32
2023-05-07T21:35:40.659Z,86.33
2023-05-07T21:38:12.206Z,86.31
2023-05-07T21:40:40.181Z,86.31
2023-05-07T21:43:08.099Z,86.29
2023-05-07T21:45:36.001Z,86.31
2023-05-07T21:48:03.790Z,86.28
2023-05-07T21:50:32.073Z,86.27
2023-05-07T21:53:02.884Z,86.25
2023-05-07T21:55:31.715Z,86.22
2023-05-07T21:58:05.365Z,86.17
2023-05-07T22:00:37.798Z,86.17
2023-05-07T22:03:05.992Z,86.17
2023-05-07T22:05:35.786Z,86.23
2023-05-07T22:08:05.029Z,86.22
2023-05-07T22:10:33.003Z,86.39
2023-05-07T22:13:02.254Z,86.42
2023-05-07T22:15:35.465Z,86.53
2023-05-07T22:18:03.025Z,86.59
2023-05-07T22:20:31.060Z,86.44
2023-05-07T22:22:58.926Z,86.38
2023-05-07T22:25:26.830Z,86.43
2023-05-07T22:27:54.934Z,86.46
2023-05-07T22:30:23.090Z,86.45
2023-05-07T22:32:55.224Z,86.52
2023-05-07T22:35:23.295Z,86.53
2023-05-07T22:37:51.060Z,86.60
2023-05-07T22:40:18.856Z,86.58
2023-05-07T22:42:46.665Z,86.68
2023-05-07T22:45:15.616Z,86.72
2023-05-07T22:47:43.535Z,86.67
2023-05-07T22:50:11.857Z,86.64
2023-05-07T22:52:39.846Z,86.62
2023-05-07T22:55:09.323Z,86.76
2023-05-07T22:57:36.874Z,86.86
2023-05-07T23:00:07.928Z,86.73
2023-05-07T23:02:37.351Z,86.57
2023-05-07T23:05:05.794Z,86.52
2023-05-07T23:07:35.209Z,86.71
2023-05-07T23:10:03.719Z,86.83
2023-05-07T23:12:31.381Z,86.80
2023-05-07T23:15:00.775Z,86.93
2023-05-07T23:17:28.306Z,86.98
2023-05-07T23:19:56.428Z,87.00
2023-05-07T23:22:24.019Z,87.08
2023-05-07T23:24:54.337Z,87.05
2023-05-07T23:27:23.633Z,87.09
2023-05-07T23:29:56.939Z,87.12
2023-05-07T23:32:24.571Z,87.11
2023-05-07T23:34:54.564Z,87.04
2023-05-07T23:37:22.943Z,87.04
2023-05-07T23:39:56.236Z,87.18
2023-05-07T23:42:25.699Z,87.33
2023-05-07T23:44:55.199Z,87.28
2023-05-07T23:47:26.432Z,87.37
2023-05-07T23:49:55.847Z,87.46
2023-05-07T23:52:25.411Z,87.51
2023-05-07T23:54:53.014Z,87.60
2023-05-07T23:57:20.685Z,87.75
2023-05-07T23:59:51.460Z,87.84
